Norwegian Epic — C6XP7 — position and weather

sailwx.info

Track history (hours):
 
Tides and Currents Weather Stations Pressure Air Temp Water Temp Dewpoint Dewpoint Depression Visibility Wind Speed Wind Dir Waves Ship Positions

Norwegian Epic

Last reported at 2018-Feb-26 00:34 UTC. Time now 2018-Feb-26 01:11 UTC.
Position N 25°34' W 077°01'.

Length 329 m; draft 9.2 m.

MMSI: 311018500.

Date/timePositionNaut miles runAvg speedWind from/ knotsBaromVisibWave heightAir tempDewpointWater temp
2018-Feb-26 00:34N 25°34' W 077°01'118.9
2018-Feb-26 00:30N 25°33' W 077°02'918.8
2018-Feb-26 00:00N 25°26' W 077°08'918.4
2018-Feb-25 23:30N 25°18' W 077°14'918.2
2018-Feb-25 23:00N 25°11' W 077°19'611.6
2018-Feb-25 22:30N 25°05' W 077°21'1 1.0
2018-Feb-25 21:58N 25°05' W 077°20'0 0.0
2018-Feb-25 21:25N 25°05' W 077°20'0 0.0
2018-Feb-25 20:59N 25°05' W 077°20'0 0.0
2018-Feb-25 20:29N 25°05' W 077°20'0 0.0
2018-Feb-25 19:59N 25°05' W 077°20'0 0.0
2018-Feb-25 19:30N 25°05' W 077°20'0 0.0
2018-Feb-25 19:00N 25°05' W 077°20'0 0.0
2018-Feb-25 18:30N 25°05' W 077°20'0 0.0
2018-Feb-25 17:58N 25°05' W 077°20'0 0.0
2018-Feb-25 17:28N 25°05' W 077°20'0 0.0
2018-Feb-25 16:58N 25°05' W 077°20'0 0.0
2018-Feb-25 16:29N 25°05' W 077°20'0 0.0
2018-Feb-25 15:59N 25°05' W 077°20'0 0.0
2018-Feb-25 15:29N 25°05' W 077°20'0 0.0
2018-Feb-25 15:00N 25°05' W 077°20'0 0.0
2018-Feb-25 14:30N 25°05' W 077°20'0 0.0
2018-Feb-25 14:00N 25°05' W 077°20'0 0.0
2018-Feb-25 13:28N 25°05' W 077°20'0 0.0
2018-Feb-25 13:00N 25°05' W 077°20'1 2.9
2018-Feb-25 12:30N 25°06' W 077°22'4 8.1
2018-Feb-25 12:00N 25°10' W 077°23'1019.8
2018-Feb-25 11:30N 25°19' W 077°27'1021.1
2018-Feb-25 11:00N 25°29' W 077°31'125 4.0
2018-Feb-24 03:25N 26°35' W 079°29'921.3
2018-Feb-24 03:00N 26°26' W 079°27'1020.6
2018-Feb-24 02:30N 26°16' W 079°29'1121.4
2018-Feb-24 02:00N 26°06' W 079°33'1121.5
2018-Feb-24 01:30N 25°55' W 079°36'1120.7
2018-Feb-24 01:00N 25°45' W 079°39'1121.5
2018-Feb-24 00:30N 25°34' W 079°40'1223.2
2018-Feb-23 23:59N 25°22' W 079°40'48720.1
2018-Feb-22 23:44N 20°41' W 086°52'520.3
2018-Feb-22 23:30N 20°38' W 086°55'714.8
2018-Feb-22 23:00N 20°31' W 086°57'0 0.1
2018-Feb-22 22:30N 20°31' W 086°57'0 0.0
2018-Feb-22 21:58N 20°31' W 086°57'0 0.0
2018-Feb-22 21:28N 20°31' W 086°57'0 0.0
2018-Feb-22 20:58N 20°31' W 086°57'0 0.0
2018-Feb-22 20:29N 20°31' W 086°57'0 0.0
2018-Feb-22 19:59N 20°31' W 086°57'0 0.0
2018-Feb-22 19:29N 20°31' W 086°57'0 0.0
2018-Feb-22 19:00N 20°31' W 086°57'0 0.0
2018-Feb-22 18:30N 20°31' W 086°57'0 0.0
2018-Feb-22 18:00N 20°31' W 086°57'0 0.0
2018-Feb-22 17:28N 20°31' W 086°57'0 0.0
2018-Feb-22 16:58N 20°31' W 086°57'0 0.0
2018-Feb-22 16:28N 20°31' W 086°57'0 0.0
2018-Feb-22 15:59N 20°31' W 086°57'0 0.0
2018-Feb-22 15:29N 20°31' W 086°57'0 0.0
2018-Feb-22 14:56N 20°31' W 086°57'0 0.0
2018-Feb-22 14:30N 20°31' W 086°57'0 0.5
2018-Feb-22 14:00N 20°31' W 086°58'3 6.1
2018-Feb-22 13:30N 20°34' W 086°58'713.7
2018-Feb-22 13:00N 20°39' W 086°53'  
2018-Feb-18 03:16N 27°32' W 079°52'817.9
2018-Feb-18 02:51N 27°38' W 079°56'616.1
2018-Feb-18 02:29N 27°43' W 079°59'817.4
2018-Feb-18 02:00N 27°50' W 080°04'45 3.1
2018-Feb-17 11:28N 28°25' W 080°38'12414.8
2018-Feb-17 03:05N 26°42' W 079°20'217.9
2018-Feb-17 02:58N 26°41' W 079°19'817.7
2018-Feb-17 02:30N 26°33' W 079°14'1018.4
2018-Feb-17 01:56N 26°26' W 079°06'1118.8
2018-Feb-17 01:20N 26°19' W 078°56'30 1.6
2018-Feb-16 06:54N 25°59' W 079°21'920.5
2018-Feb-16 06:29N 25°54' W 079°29'919.9
2018-Feb-16 06:00N 25°46' W 079°34'1121.4
2018-Feb-16 05:30N 25°35' W 079°36'  
Track history (hours):
 
Tides and Currents Weather Stations Pressure Air Temp Water Temp Dewpoint Dewpoint Depression Visibility Wind Speed Wind Dir Waves Ship Positions

Norwegian Epic

Last reported at 2018-Feb-26 00:34 UTC. Time now 2018-Feb-26 01:11 UTC.
Position N 25°34' W 077°01'.

Length 329 m; draft 9.2 m.

MMSI: 311018500.

Date/timePositionNaut miles runAvg speedWind from/ knotsBaromVisibWave heightAir tempDewpointWater temp
2018-Feb-26 00:34N 25°34' W 077°01'118.9
2018-Feb-26 00:30N 25°33' W 077°02'918.8
2018-Feb-26 00:00N 25°26' W 077°08'918.4
2018-Feb-25 23:30N 25°18' W 077°14'918.2
2018-Feb-25 23:00N 25°11' W 077°19'611.6
2018-Feb-25 22:30N 25°05' W 077°21'1 1.0
2018-Feb-25 21:58N 25°05' W 077°20'0 0.0
2018-Feb-25 21:25N 25°05' W 077°20'0 0.0
2018-Feb-25 20:59N 25°05' W 077°20'0 0.0
2018-Feb-25 20:29N 25°05' W 077°20'0 0.0
2018-Feb-25 19:59N 25°05' W 077°20'0 0.0
2018-Feb-25 19:30N 25°05' W 077°20'0 0.0
2018-Feb-25 19:00N 25°05' W 077°20'0 0.0
2018-Feb-25 18:30N 25°05' W 077°20'0 0.0
2018-Feb-25 17:58N 25°05' W 077°20'0 0.0
2018-Feb-25 17:28N 25°05' W 077°20'0 0.0
2018-Feb-25 16:58N 25°05' W 077°20'0 0.0
2018-Feb-25 16:29N 25°05' W 077°20'0 0.0
2018-Feb-25 15:59N 25°05' W 077°20'0 0.0
2018-Feb-25 15:29N 25°05' W 077°20'0 0.0
2018-Feb-25 15:00N 25°05' W 077°20'0 0.0
2018-Feb-25 14:30N 25°05' W 077°20'0 0.0
2018-Feb-25 14:00N 25°05' W 077°20'0 0.0
2018-Feb-25 13:28N 25°05' W 077°20'0 0.0
2018-Feb-25 13:00N 25°05' W 077°20'1 2.9
2018-Feb-25 12:30N 25°06' W 077°22'4 8.1
2018-Feb-25 12:00N 25°10' W 077°23'1019.8
2018-Feb-25 11:30N 25°19' W 077°27'1021.1
2018-Feb-25 11:00N 25°29' W 077°31'125 4.0
2018-Feb-24 03:25N 26°35' W 079°29'921.3
2018-Feb-24 03:00N 26°26' W 079°27'1020.6
2018-Feb-24 02:30N 26°16' W 079°29'1121.4
2018-Feb-24 02:00N 26°06' W 079°33'1121.5
2018-Feb-24 01:30N 25°55' W 079°36'1120.7
2018-Feb-24 01:00N 25°45' W 079°39'1121.5
2018-Feb-24 00:30N 25°34' W 079°40'1223.2
2018-Feb-23 23:59N 25°22' W 079°40'48720.1
2018-Feb-22 23:44N 20°41' W 086°52'520.3
2018-Feb-22 23:30N 20°38' W 086°55'714.8
2018-Feb-22 23:00N 20°31' W 086°57'0 0.1
2018-Feb-22 22:30N 20°31' W 086°57'0 0.0
2018-Feb-22 21:58N 20°31' W 086°57'0 0.0
2018-Feb-22 21:28N 20°31' W 086°57'0 0.0
2018-Feb-22 20:58N 20°31' W 086°57'0 0.0
2018-Feb-22 20:29N 20°31' W 086°57'0 0.0
2018-Feb-22 19:59N 20°31' W 086°57'0 0.0
2018-Feb-22 19:29N 20°31' W 086°57'0 0.0
2018-Feb-22 19:00N 20°31' W 086°57'0 0.0
2018-Feb-22 18:30N 20°31' W 086°57'0 0.0
2018-Feb-22 18:00N 20°31' W 086°57'0 0.0
2018-Feb-22 17:28N 20°31' W 086°57'0 0.0
2018-Feb-22 16:58N 20°31' W 086°57'0 0.0
2018-Feb-22 16:28N 20°31' W 086°57'0 0.0
2018-Feb-22 15:59N 20°31' W 086°57'0 0.0
2018-Feb-22 15:29N 20°31' W 086°57'0 0.0
2018-Feb-22 14:56N 20°31' W 086°57'0 0.0
2018-Feb-22 14:30N 20°31' W 086°57'0 0.5
2018-Feb-22 14:00N 20°31' W 086°58'3 6.1
2018-Feb-22 13:30N 20°34' W 086°58'713.7
2018-Feb-22 13:00N 20°39' W 086°53'  
2018-Feb-18 03:16N 27°32' W 079°52'817.9
2018-Feb-18 02:51N 27°38' W 079°56'616.1
2018-Feb-18 02:29N 27°43' W 079°59'817.4
2018-Feb-18 02:00N 27°50' W 080°04'45 3.1
2018-Feb-17 11:28N 28°25' W 080°38'12414.8
2018-Feb-17 03:05N 26°42' W 079°20'217.9
2018-Feb-17 02:58N 26°41' W 079°19'817.7
2018-Feb-17 02:30N 26°33' W 079°14'1018.4
2018-Feb-17 01:56N 26°26' W 079°06'1118.8
2018-Feb-17 01:20N 26°19' W 078°56'30 1.6
2018-Feb-16 06:54N 25°59' W 079°21'920.5
2018-Feb-16 06:29N 25°54' W 079°29'919.9
2018-Feb-16 06:00N 25°46' W 079°34'1121.4
2018-Feb-16 05:30N 25°35' W 079°36'  

Dump ship's entire track history